Time;durP1;ratioP1;P1;durP2;ratioP2;P2;SDS_P1;SDS_P2;PMS_P1;PMS_P2;Temp;Humidity;BMP_temperature;BMP_pressure;BME280_temperature;BME280_humidity;BME280_pressure;Samples;Min_cycle;Max_cycle;Signal;HPM_P1;HPM_P2
2024/01/10 00:00:09;;;;;;;28.10;17.90;;;;;;;;;;4994059;28;20403;-81
2024/01/10 00:03:19;;;;;;;28.17;17.38;;;;;;;;;;5014932;28;20850;-81
2024/01/10 00:06:34;;;;;;;27.25;17.45;;;;;;;;;;5019102;28;20415;-81
2024/01/10 00:12:53;;;;;;;27.58;17.80;;;;;;;;;;5004272;28;20398;-82
2024/01/10 00:15:19;;;;;;;28.85;18.25;;;;;;;;;;5058526;28;20484;-81
2024/01/10 00:17:45;;;;;;;27.33;17.65;;;;;;;;;;5056865;28;20402;-81
2024/01/10 00:20:11;;;;;;;27.13;17.23;;;;;;;;;;5045193;28;20406;-81
2024/01/10 00:22:37;;;;;;;27.52;17.05;;;;;;;;;;5060953;28;20447;-81
2024/01/10 00:25:04;;;;;;;25.95;16.85;;;;;;;;;;5078321;28;20402;-81
2024/01/10 00:27:36;;;;;;;25.98;16.58;;;;;;;;;;5083748;28;20393;-81
2024/01/10 00:30:03;;;;;;;28.08;17.27;;;;;;;;;;5076702;28;20436;-82
2024/01/10 00:32:30;;;;;;;26.52;16.83;;;;;;;;;;5061151;28;20779;-81
2024/01/10 00:34:56;;;;;;;26.15;16.92;;;;;;;;;;5058266;28;20409;-81
2024/01/10 00:37:22;;;;;;;26.77;16.77;;;;;;;;;;5051732;28;20423;-81
2024/01/10 00:39:49;;;;;;;27.83;16.63;;;;;;;;;;5052301;28;20474;-81
2024/01/10 00:42:15;;;;;;;26.83;16.98;;;;;;;;;;5070231;28;20388;-81
2024/01/10 00:44:42;;;;;;;26.58;17.02;;;;;;;;;;5084452;27;20409;-81
2024/01/10 00:47:09;;;;;;;27.30;16.95;;;;;;;;;;5098156;28;20434;-81
2024/01/10 00:49:36;;;;;;;28.65;17.52;;;;;;;;;;5097983;28;20449;-81
2024/01/10 00:52:02;;;;;;;31.40;18.27;;;;;;;;;;5097385;28;20400;-81
2024/01/10 00:54:31;;;;;;;28.27;16.80;;;;;;;;;;5079667;28;20423;-81
2024/01/10 00:57:01;;;;;;;28.05;16.88;;;;;;;;;;5110000;27;20894;-81
2024/01/10 00:59:30;;;;;;;27.13;17.45;;;;;;;;;;5097744;28;21040;-81
2024/01/10 01:02:39;;;;;;;25.55;16.15;;;;;;;;;;5075897;28;20405;-81
2024/01/10 01:05:41;;;;;;;28.48;17.73;;;;;;;;;;5063048;28;20386;-81
2024/01/10 01:08:07;;;;;;;27.38;17.60;;;;;;;;;;5078609;27;20398;-80
2024/01/10 01:11:03;;;;;;;27.67;17.50;;;;;;;;;;5072504;28;20427;-81
2024/01/10 01:13:59;;;;;;;29.33;17.77;;;;;;;;;;5088316;28;20408;-81
2024/01/10 01:17:00;;;;;;;;;;;;;;;;;;;;;
2024/01/10 01:19:35;;;;;;;29.23;18.08;;;;;;;;;;5095306;28;20418;-80
2024/01/10 01:22:05;;;;;;;28.75;17.42;;;;;;;;;;5086170;28;20402;-80
2024/01/10 01:24:34;;;;;;;30.40;18.38;;;;;;;;;;5077408;28;20580;-80
2024/01/10 01:27:14;;;;;;;30.37;18.47;;;;;;;;;;5107859;27;20512;-81
2024/01/10 01:29:53;;;;;;;28.33;17.30;;;;;;;;;;5100146;28;20803;-81
2024/01/10 01:32:22;;;;;;;27.27;17.25;;;;;;;;;;5101435;28;20401;-81
2024/01/10 01:35:00;;;;;;;27.83;17.65;;;;;;;;;;5090243;28;20392;-81
2024/01/10 01:37:52;;;;;;;28.98;17.48;;;;;;;;;;5108137;27;20430;-81
2024/01/10 01:40:49;;;;;;;25.75;16.08;;;;;;;;;;5091925;28;20393;-81
2024/01/10 01:43:26;;;;;;;26.25;17.30;;;;;;;;;;5092891;28;20445;-81
2024/01/10 01:46:03;;;;;;;26.87;17.07;;;;;;;;;;5074923;28;20418;-80
2024/01/10 01:48:45;;;;;;;26.33;16.75;;;;;;;;;;5094594;28;20407;-81
2024/01/10 01:51:25;;;;;;;;;;;;;;;;;;;;;
2024/01/10 01:54:11;;;;;;;27.42;17.10;;;;;;;;;;5067025;28;20390;-80
2024/01/10 01:56:40;;;;;;;28.05;16.88;;;;;;;;;;5056846;28;20926;-80
2024/01/10 01:59:09;;;;;;;26.85;17.23;;;;;;;;;;5035041;28;20486;-81
2024/01/10 02:01:42;;;;;;;27.90;17.25;;;;;;;;;;5054290;28;20399;-80
2024/01/10 02:04:15;;;;;;;26.00;17.15;;;;;;;;;;5049252;28;20427;-80
2024/01/10 02:06:50;;;;;;;25.67;16.38;;;;;;;;;;5053454;28;20400;-80
2024/01/10 02:12:50;;;;;;;26.33;17.13;;;;;;;;;;5044048;28;20418;-81
2024/01/10 02:19:01;;;;;;;27.77;17.43;;;;;;;;;;5101035;27;20416;-81
2024/01/10 02:22:04;;;;;;;29.08;17.75;;;;;;;;;;5088633;27;20390;-79
2024/01/10 02:28:22;;;;;;;30.13;17.88;;;;;;;;;;5105565;27;20384;-80
2024/01/10 02:31:18;;;;;;;30.80;18.33;;;;;;;;;;5075723;28;20396;-80
2024/01/10 02:34:11;;;;;;;28.10;17.77;;;;;;;;;;5043052;28;20398;-80
2024/01/10 02:37:19;;;;;;;29.00;17.25;;;;;;;;;;5069787;28;20423;-81
2024/01/10 02:42:55;;;;;;;28.58;17.83;;;;;;;;;;5087987;28;20390;-80
2024/01/10 02:45:36;;;;;;;30.00;18.08;;;;;;;;;;5064788;28;20791;-81
2024/01/10 02:54:23;;;;;;;28.48;17.30;;;;;;;;;;5049727;28;20400;-81
2024/01/10 03:00:48;;;;;;;30.65;18.17;;;;;;;;;;5026489;28;20427;-81
2024/01/10 03:04:08;;;;;;;28.35;18.00;;;;;;;;;;4931215;28;20770;-81
2024/01/10 03:06:43;;;;;;;29.00;17.07;;;;;;;;;;4936976;28;20439;-81
2024/01/10 03:09:33;;;;;;;29.70;18.38;;;;;;;;;;4954985;28;20922;-81
2024/01/10 03:12:37;;;;;;;29.33;17.63;;;;;;;;;;4955551;28;20451;-81
2024/01/10 03:15:37;;;;;;;28.93;17.70;;;;;;;;;;4934588;29;20410;-81
2024/01/10 03:21:26;;;;;;;27.60;16.80;;;;;;;;;;4965727;28;20416;-81
2024/01/10 03:33:12;;;;;;;28.30;16.75;;;;;;;;;;5081450;28;20458;-81
2024/01/10 03:39:30;;;;;;;27.52;17.00;;;;;;;;;;4887641;29;20432;-81
2024/01/10 03:45:43;;;;;;;26.83;16.42;;;;;;;;;;4957723;28;20866;-81
2024/01/10 03:48:52;;;;;;;;;;;;;;;;;;;;;
2024/01/10 03:55:00;;;;;;;30.63;17.05;;;;;;;;;;5018368;28;20408;-80
2024/01/10 03:57:27;;;;;;;27.25;16.63;;;;;;;;;;4996573;28;20425;-81
2024/01/10 03:59:54;;;;;;;29.55;17.20;;;;;;;;;;4999268;28;20460;-81
2024/01/10 04:02:27;;;;;;;27.00;17.02;;;;;;;;;;4974494;28;20452;-81
2024/01/10 04:05:13;;;;;;;30.55;17.42;;;;;;;;;;4943519;28;20437;-81
2024/01/10 04:07:43;;;;;;;28.35;17.33;;;;;;;;;;4951488;28;20770;-81
2024/01/10 04:10:16;;;;;;;29.80;18.23;;;;;;;;;;4975450;28;20800;-81
2024/01/10 04:12:43;;;;;;;28.13;16.90;;;;;;;;;;4959788;28;20570;-82
2024/01/10 04:15:12;;;;;;;28.65;18.33;;;;;;;;;;4970480;28;20420;-81
2024/01/10 04:17:39;;;;;;;30.80;19.02;;;;;;;;;;4947244;28;20408;-81
2024/01/10 04:20:08;;;;;;;31.08;19.30;;;;;;;;;;4957267;28;20490;-81
2024/01/10 04:22:44;;;;;;;31.65;18.80;;;;;;;;;;4954277;28;20430;-81
2024/01/10 04:25:13;;;;;;;30.95;18.98;;;;;;;;;;4919678;29;20419;-81
2024/01/10 04:27:43;;;;;;;30.60;17.92;;;;;;;;;;4933769;29;20419;-81
2024/01/10 04:30:10;;;;;;;32.38;18.70;;;;;;;;;;4931371;29;20436;-81
2024/01/10 04:32:43;;;;;;;28.63;18.48;;;;;;;;;;4925659;28;20454;-81
2024/01/10 04:35:26;;;;;;;30.83;18.48;;;;;;;;;;4955645;28;20410;-80
2024/01/10 04:38:27;;;;;;;29.90;18.55;;;;;;;;;;4946060;28;20418;-81
2024/01/10 04:55:34;;;;;;;29.90;18.55;;;;;;;;;;4819364;29;20426;-81
2024/01/10 05:09:00;;;;;;;;;;;;;;;;;;;;;
2024/01/10 05:22:19;;;;;;;34.83;21.20;;;;;;;;;;4915479;29;20421;-82
2024/01/10 05:35:25;;;;;;;32.67;20.55;;;;;;;;;;4783546;29;20421;-82
2024/01/10 05:37:52;;;;;;;33.60;20.15;;;;;;;;;;4832411;29;20424;-82
2024/01/10 05:40:18;;;;;;;34.15;20.77;;;;;;;;;;4858418;29;20441;-81
2024/01/10 05:42:49;;;;;;;32.83;20.50;;;;;;;;;;4918296;29;20928;-81
2024/01/10 05:45:17;;;;;;;32.80;20.33;;;;;;;;;;4917799;29;20455;-81
2024/01/10 05:47:44;;;;;;;32.13;19.85;;;;;;;;;;4899968;29;20931;-81
2024/01/10 05:50:12;;;;;;;32.45;20.08;;;;;;;;;;4911055;29;20422;-81
2024/01/10 05:52:39;;;;;;;33.63;20.65;;;;;;;;;;4921595;28;20451;-81
2024/01/10 05:55:08;;;;;;;35.40;20.65;;;;;;;;;;4960700;28;20526;-82
2024/01/10 05:57:35;;;;;;;33.28;19.95;;;;;;;;;;4978738;28;20491;-81
2024/01/10 06:00:01;;;;;;;33.05;20.10;;;;;;;;;;5032656;28;20435;-81
2024/01/10 06:02:27;;;;;;;32.58;20.50;;;;;;;;;;5052761;28;20395;-81
2024/01/10 06:04:53;;;;;;;31.02;20.05;;;;;;;;;;5055213;28;20395;-81
2024/01/10 06:07:20;;;;;;;33.97;20.67;;;;;;;;;;5055755;28;20474;-82
2024/01/10 06:09:47;;;;;;;34.17;21.15;;;;;;;;;;5053120;28;20405;-82
2024/01/10 06:12:13;;;;;;;32.55;21.25;;;;;;;;;;5051201;28;20412;-82
2024/01/10 06:14:40;;;;;;;33.88;21.27;;;;;;;;;;5028364;28;20454;-83
2024/01/10 06:17:07;;;;;;;32.45;19.80;;;;;;;;;;5029521;28;20804;-84
2024/01/10 06:19:33;;;;;;;31.40;19.63;;;;;;;;;;5021552;28;20414;-81
2024/01/10 06:22:00;;;;;;;32.92;20.05;;;;;;;;;;5051487;28;20401;-81
2024/01/10 06:24:26;;;;;;;32.85;20.10;;;;;;;;;;5023113;28;20403;-80
2024/01/10 06:26:55;;;;;;;31.35;19.65;;;;;;;;;;5021331;28;20428;-80
2024/01/10 06:29:21;;;;;;;32.53;20.27;;;;;;;;;;5051455;28;20456;-80
2024/01/10 06:31:47;;;;;;;32.72;20.13;;;;;;;;;;5035346;28;20496;-80
2024/01/10 06:34:13;;;;;;;33.03;20.17;;;;;;;;;;5050664;28;20532;-79
2024/01/10 06:36:39;;;;;;;34.72;20.42;;;;;;;;;;5035150;28;20457;-80
2024/01/10 06:39:05;;;;;;;31.92;19.92;;;;;;;;;;5042525;28;20427;-81
2024/01/10 06:41:31;;;;;;;32.17;20.42;;;;;;;;;;5051551;28;20985;-81
2024/01/10 06:43:58;;;;;;;33.47;20.48;;;;;;;;;;5043450;28;20914;-80
2024/01/10 06:46:24;;;;;;;31.35;19.58;;;;;;;;;;5055967;28;20423;-81
2024/01/10 06:48:50;;;;;;;34.30;20.30;;;;;;;;;;5034993;28;20403;-80
2024/01/10 06:51:16;;;;;;;32.90;20.08;;;;;;;;;;5024955;28;20403;-81
2024/01/10 06:53:42;;;;;;;32.67;20.63;;;;;;;;;;5071076;28;20433;-81
2024/01/10 06:56:09;;;;;;;35.08;21.23;;;;;;;;;;5066520;28;20469;-79
2024/01/10 06:58:41;;;;;;;32.87;21.27;;;;;;;;;;5052132;28;20452;-84
2024/01/10 07:01:17;;;;;;;33.10;20.25;;;;;;;;;;5053437;28;20390;-85
2024/01/10 07:03:45;;;;;;;36.33;21.73;;;;;;;;;;5029166;28;20743;-86
2024/01/10 07:06:14;;;;;;;34.67;21.45;;;;;;;;;;5048748;28;20403;-82
2024/01/10 07:08:42;;;;;;;37.00;24.17;;;;;;;;;;5055669;28;20413;-83
2024/01/10 07:11:08;;;;;;;44.33;27.43;;;;;;;;;;5049991;28;20422;-82
2024/01/10 07:13:34;;;;;;;41.20;24.30;;;;;;;;;;5052956;28;20432;-83
2024/01/10 07:16:03;;;;;;;40.97;23.80;;;;;;;;;;5066261;28;20462;-82
2024/01/10 07:18:30;;;;;;;41.10;24.75;;;;;;;;;;5057916;28;20837;-82
2024/01/10 07:20:56;;;;;;;49.10;29.55;;;;;;;;;;5051750;28;20462;-82
2024/01/10 07:23:25;;;;;;;41.55;24.63;;;;;;;;;;5067224;28;20502;-82
2024/01/10 07:25:51;;;;;;;48.70;28.13;;;;;;;;;;5036518;28;20494;-82
2024/01/10 07:28:18;;;;;;;45.47;26.00;;;;;;;;;;5056415;28;20413;-81
2024/01/10 07:30:44;;;;;;;43.17;25.88;;;;;;;;;;5070496;28;20402;-82
2024/01/10 07:33:10;;;;;;;36.75;23.02;;;;;;;;;;5054923;28;20478;-82
2024/01/10 07:35:38;;;;;;;38.05;25.30;;;;;;;;;;5073198;28;20815;-82
2024/01/10 07:38:04;;;;;;;38.70;23.48;;;;;;;;;;5065626;28;20419;-83
2024/01/10 07:40:32;;;;;;;34.55;22.40;;;;;;;;;;5043560;28;20548;-82
2024/01/10 07:42:58;;;;;;;36.50;22.85;;;;;;;;;;5063215;28;20423;-81
2024/01/10 07:45:24;;;;;;;37.75;24.27;;;;;;;;;;5061068;28;20581;-81
2024/01/10 07:47:50;;;;;;;45.40;26.15;;;;;;;;;;5024041;28;20478;-82
2024/01/10 07:50:17;;;;;;;43.78;26.27;;;;;;;;;;5050735;28;20403;-81
2024/01/10 07:52:43;;;;;;;43.70;26.63;;;;;;;;;;5086951;28;20398;-82
2024/01/10 07:55:09;;;;;;;46.88;28.17;;;;;;;;;;5064979;28;20895;-83
2024/01/10 07:57:39;;;;;;;42.22;25.15;;;;;;;;;;5067039;28;20472;-82
2024/01/10 08:00:12;;;;;;;37.25;24.00;;;;;;;;;;5050050;28;20429;-82
2024/01/10 08:02:38;;;;;;;37.88;23.45;;;;;;;;;;5055171;28;20394;-82
2024/01/10 08:05:12;;;;;;;36.15;23.17;;;;;;;;;;5036114;28;20399;-82
2024/01/10 08:07:41;;;;;;;36.03;22.08;;;;;;;;;;5046910;28;20427;-82
2024/01/10 08:10:09;;;;;;;36.83;22.90;;;;;;;;;;5055573;28;20505;-84
2024/01/10 08:12:36;;;;;;;36.33;22.17;;;;;;;;;;5051813;28;20401;-84
2024/01/10 08:15:02;;;;;;;35.33;22.45;;;;;;;;;;5071772;28;20437;-85
2024/01/10 08:17:28;;;;;;;33.83;20.63;;;;;;;;;;5054188;28;20947;-86
2024/01/10 08:19:54;;;;;;;33.05;19.67;;;;;;;;;;5049230;28;20513;-86
2024/01/10 08:22:20;;;;;;;34.53;19.83;;;;;;;;;;5068273;28;20410;-85
2024/01/10 08:24:47;;;;;;;34.55;20.88;;;;;;;;;;5072546;28;20448;-84
2024/01/10 08:27:13;;;;;;;33.17;20.13;;;;;;;;;;5049915;28;20482;-86
2024/01/10 08:29:40;;;;;;;32.13;19.83;;;;;;;;;;5055262;28;20403;-85
2024/01/10 08:32:06;;;;;;;34.63;20.58;;;;;;;;;;5048773;28;20433;-83
2024/01/10 08:34:33;;;;;;;31.77;18.33;;;;;;;;;;5051794;28;20501;-82
2024/01/10 08:36:59;;;;;;;31.23;18.00;;;;;;;;;;5089556;28;20769;-83
2024/01/10 08:39:28;;;;;;;31.27;17.83;;;;;;;;;;5072404;28;20429;-83
2024/01/10 08:41:55;;;;;;;27.98;16.63;;;;;;;;;;5062962;28;20401;-84
2024/01/10 08:44:21;;;;;;;30.77;17.77;;;;;;;;;;5045421;28;20400;-84
2024/01/10 08:46:48;;;;;;;29.58;17.10;;;;;;;;;;5075743;28;20454;-83
2024/01/10 08:49:14;;;;;;;29.10;16.75;;;;;;;;;;5041981;28;20414;-84
2024/01/10 08:51:40;;;;;;;32.67;17.40;;;;;;;;;;5046111;28;20482;-84
2024/01/10 08:54:07;;;;;;;30.25;16.23;;;;;;;;;;5060721;28;20447;-84
2024/01/10 08:56:34;;;;;;;27.80;15.70;;;;;;;;;;5059928;28;20405;-83
2024/01/10 08:59:01;;;;;;;28.60;16.23;;;;;;;;;;5043425;28;20466;-83
2024/01/10 09:01:27;;;;;;;30.02;16.60;;;;;;;;;;5084766;28;20393;-82
2024/01/10 09:03:54;;;;;;;27.77;15.57;;;;;;;;;;5059377;28;20418;-82
2024/01/10 09:06:20;;;;;;;29.60;16.67;;;;;;;;;;5043369;28;20811;-83
2024/01/10 09:08:47;;;;;;;29.42;15.45;;;;;;;;;;5051149;28;20897;-83
2024/01/10 09:11:13;;;;;;;27.17;15.18;;;;;;;;;;5070228;28;20394;-84
2024/01/10 09:13:40;;;;;;;28.25;15.52;;;;;;;;;;5045354;28;20397;-84
2024/01/10 09:16:06;;;;;;;29.47;15.57;;;;;;;;;;5058642;28;20405;-84
2024/01/10 09:18:32;;;;;;;28.45;14.07;;;;;;;;;;5065268;28;20475;-84
2024/01/10 09:20:58;;;;;;;24.60;13.40;;;;;;;;;;5058659;28;20562;-82
2024/01/10 09:23:24;;;;;;;27.08;14.25;;;;;;;;;;5062802;28;20407;-83
2024/01/10 09:25:50;;;;;;;24.83;13.90;;;;;;;;;;5070832;28;21751;-83
2024/01/10 09:28:17;;;;;;;25.92;14.02;;;;;;;;;;5055434;28;20509;-83
2024/01/10 09:30:43;;;;;;;24.30;12.83;;;;;;;;;;5049691;28;20398;-83
2024/01/10 09:33:09;;;;;;;24.98;13.50;;;;;;;;;;5073983;28;20420;-84
2024/01/10 09:35:35;;;;;;;25.97;13.60;;;;;;;;;;5084623;28;20453;-84
2024/01/10 09:38:01;;;;;;;24.83;12.88;;;;;;;;;;5042620;28;20872;-83
2024/01/10 09:40:29;;;;;;;25.90;13.47;;;;;;;;;;5021960;28;21048;-83
2024/01/10 09:42:55;;;;;;;25.33;12.48;;;;;;;;;;5044575;28;20553;-84
2024/01/10 09:45:25;;;;;;;25.05;13.48;;;;;;;;;;5075922;28;20420;-84
2024/01/10 09:47:57;;;;;;;27.15;13.52;;;;;;;;;;5051765;28;20416;-84
2024/01/10 09:50:27;;;;;;;25.90;13.43;;;;;;;;;;5040037;28;20400;-85
2024/01/10 09:52:54;;;;;;;23.47;12.27;;;;;;;;;;5058017;28;20563;-84
2024/01/10 09:55:23;;;;;;;22.50;12.15;;;;;;;;;;5075305;28;20418;-84
2024/01/10 09:57:50;;;;;;;23.13;12.03;;;;;;;;;;5060164;28;20486;-86
2024/01/10 10:00:16;;;;;;;22.25;11.60;;;;;;;;;;5056827;28;20417;-84
2024/01/10 10:02:54;;;;;;;22.67;11.35;;;;;;;;;;5060585;28;20738;-87
2024/01/10 10:05:29;;;;;;;22.30;12.27;;;;;;;;;;5051134;28;20433;-89
2024/01/10 10:07:57;;;;;;;22.88;11.32;;;;;;;;;;5044746;28;20475;-86
2024/01/10 10:10:45;;;;;;;23.92;11.93;;;;;;;;;;5049221;28;20487;-88
2024/01/10 10:13:42;;;;;;;21.55;11.68;;;;;;;;;;5071563;28;20402;-86
2024/01/10 10:36:26;;;;;;;20.10;11.40;;;;;;;;;;5048931;28;20415;-87
2024/01/10 10:39:06;;;;;;;19.08;10.20;;;;;;;;;;5040822;28;20418;-86
2024/01/10 10:44:46;;;;;;;18.40;9.60;;;;;;;;;;5032042;28;20447;-85
2024/01/10 10:47:18;;;;;;;18.48;9.65;;;;;;;;;;5056856;28;20410;-86
2024/01/10 10:50:32;;;;;;;;;;;;;;;;;;;;;
2024/01/10 10:53:45;;;;;;;17.77;8.75;;;;;;;;;;5080733;28;20450;-85
2024/01/10 11:00:08;;;;;;;17.20;9.15;;;;;;;;;;5012867;28;20445;-85
2024/01/10 11:03:17;;;;;;;17.50;9.50;;;;;;;;;;5000049;28;20954;-85
2024/01/10 11:05:58;;;;;;;15.80;8.75;;;;;;;;;;4994541;28;20420;-85
2024/01/10 11:08:45;;;;;;;20.65;9.90;;;;;;;;;;5015658;28;20481;-85
2024/01/10 11:11:45;;;;;;;17.33;9.48;;;;;;;;;;4998937;28;20416;-86
2024/01/10 11:14:40;;;;;;;16.40;9.80;;;;;;;;;;4998452;28;20424;-87
2024/01/10 11:24:49;;;;;;;16.00;9.13;;;;;;;;;;4998441;28;20538;-86
2024/01/10 11:30:56;;;;;;;16.50;8.57;;;;;;;;;;5009890;28;20487;-84
2024/01/10 11:33:23;;;;;;;17.10;9.05;;;;;;;;;;4993148;28;20424;-84
2024/01/10 11:36:09;;;;;;;19.00;10.43;;;;;;;;;;4993517;28;20432;-84
2024/01/10 11:38:48;;;;;;;19.02;10.05;;;;;;;;;;4993420;28;20453;-83
2024/01/10 11:41:21;;;;;;;18.00;9.85;;;;;;;;;;5011218;28;20862;-92
2024/01/10 11:43:47;;;;;;;18.23;9.95;;;;;;;;;;5001490;28;20489;-90
2024/01/10 11:46:13;;;;;;;16.38;8.60;;;;;;;;;;5002244;28;20403;-89
2024/01/10 11:48:41;;;;;;;16.20;9.18;;;;;;;;;;5017181;28;20476;-89
2024/01/10 11:51:08;;;;;;;19.25;9.30;;;;;;;;;;5017655;28;20413;-88
2024/01/10 11:53:40;;;;;;;15.90;8.93;;;;;;;;;;5022526;28;20467;-89
2024/01/10 11:56:15;;;;;;;17.30;9.27;;;;;;;;;;5000152;28;20442;-89
2024/01/10 11:58:59;;;;;;;15.43;9.32;;;;;;;;;;5030590;28;20418;-88
2024/01/10 12:04:17;;;;;;;15.65;9.00;;;;;;;;;;4972213;28;20447;-85
2024/01/10 12:06:47;;;;;;;16.70;9.45;;;;;;;;;;5009999;28;20439;-86
2024/01/10 12:09:14;;;;;;;15.70;8.60;;;;;;;;;;5017501;28;20420;-86
2024/01/10 12:11:41;;;;;;;16.75;9.65;;;;;;;;;;5016947;28;20409;-84
2024/01/10 12:14:08;;;;;;;16.27;8.98;;;;;;;;;;5013127;28;20425;-85
2024/01/10 12:16:35;;;;;;;15.75;8.57;;;;;;;;;;5018755;28;20409;-85
2024/01/10 12:19:01;;;;;;;15.10;8.30;;;;;;;;;;5017575;28;20448;-86
2024/01/10 12:21:27;;;;;;;17.60;9.27;;;;;;;;;;5028880;28;20792;-86
2024/01/10 12:23:53;;;;;;;16.85;8.30;;;;;;;;;;5025799;28;20422;-86
2024/01/10 12:26:20;;;;;;;15.80;9.32;;;;;;;;;;5034018;28;20899;-85
2024/01/10 12:28:56;;;;;;;17.27;8.85;;;;;;;;;;5027350;28;20403;-86
2024/01/10 12:31:23;;;;;;;16.60;9.73;;;;;;;;;;5019319;28;20906;-86
2024/01/10 12:33:49;;;;;;;13.88;7.95;;;;;;;;;;5021192;28;20411;-84
2024/01/10 12:36:17;;;;;;;15.60;9.03;;;;;;;;;;5029502;28;20407;-85
2024/01/10 12:38:44;;;;;;;15.50;8.65;;;;;;;;;;5030433;28;20436;-84
2024/01/10 12:41:10;;;;;;;16.92;8.63;;;;;;;;;;5025618;28;20407;-85
2024/01/10 12:43:55;;;;;;;15.45;8.52;;;0.30;94.20;;;;;;5016301;28;20441;-84
2024/01/10 12:46:25;;;;;;;15.32;8.82;;;;;;;;;;5004918;28;20413;-84
2024/01/10 12:49:21;;;;;;;16.77;9.40;;;;;;;;;;5026615;28;20933;-84
2024/01/10 12:51:47;;;;;;;14.68;9.18;;;;;;;;;;5001439;28;20411;-84
2024/01/10 12:54:13;;;;;;;19.55;11.10;;;;;;;;;;5013128;28;20403;-83
2024/01/10 12:56:39;;;;;;;18.08;9.65;;;;;;;;;;5009300;28;20457;-84
2024/01/10 12:59:05;;;;;;;14.17;8.70;;;;;;;;;;5016313;28;20465;-84
2024/01/10 13:01:35;;;;;;;16.10;8.90;;;;;;;;;;5015775;28;20415;-83
2024/01/10 13:04:12;;;;;;;16.80;9.25;;;;;;;;;;5019724;28;22189;-82
2024/01/10 13:06:40;;;;;;;15.75;9.02;;;;;;;;;;5016504;28;20490;-83
2024/01/10 13:09:07;;;;;;;16.10;9.05;;;;;;;;;;5032631;28;20427;-82
2024/01/10 13:11:33;;;;;;;16.55;8.95;;;;;;;;;;5018811;28;20411;-82
2024/01/10 13:14:00;;;;;;;16.20;9.20;;;;;;;;;;5015008;28;20521;-83
2024/01/10 13:16:26;;;;;;;15.07;9.50;;;;;;;;;;5009855;28;20411;-83
2024/01/10 13:18:54;;;;;;;18.02;9.55;;;;;;;;;;5034600;28;20423;-84
2024/01/10 13:21:50;;;;;;;17.85;9.75;;;;;;;;;;5021742;28;20401;-84
2024/01/10 13:24:19;;;;;;;18.45;9.07;;;;;;;;;;5036675;28;20498;-84
2024/01/10 13:27:05;;;;;;;17.35;9.75;;;;;;;;;;5035683;28;20401;-84
2024/01/10 13:29:52;;;;;;;18.17;9.68;;;;;;;;;;5034291;28;20427;-85
2024/01/10 13:39:36;;;;;;;17.17;9.55;;;;;;;;;;5008121;28;20447;-88
2024/01/10 13:42:53;;;;;;;17.75;9.90;;;-0.20;97.90;;;;;;5012249;28;20925;-88
2024/01/10 13:46:03;;;;;;;19.37;9.43;;;;;;;;;;4984943;28;20498;-85
2024/01/10 13:48:41;;;;;;;;;;;;;;;;;;;;;
2024/01/10 13:51:13;;;;;;;17.80;9.48;;;;;;;;;;4985538;28;20535;-86
2024/01/10 13:53:45;;;;;;;16.88;8.90;;;;;;;;;;4968415;28;20412;-86
2024/01/10 13:56:35;;;;;;;16.88;9.27;;;;;;;;;;4973237;28;20401;-84
2024/01/10 13:59:42;;;;;;;17.00;9.30;;;;;;;;;;4976520;28;20914;-87
2024/01/10 14:03:10;;;;;;;16.88;9.07;;;;;;;;;;4952854;28;20440;-85
2024/01/10 14:09:10;;;;;;;16.88;8.93;;;;;;;;;;4964892;28;20500;-86
2024/01/10 14:11:44;;;;;;;16.48;9.00;;;;;;;;;;4977104;28;21063;-85
2024/01/10 14:17:18;;;;;;;17.05;9.02;;;;;;;;;;4969550;28;20428;-84
2024/01/10 14:23:11;;;;;;;;;;;;;;;;;;;;;
2024/01/10 14:25:57;;;;;;;18.25;9.88;;;;;;;;;;4992815;28;20437;-84
2024/01/10 14:28:24;;;;;;;18.80;9.65;;;;;;;;;;4978464;28;20394;-84
2024/01/10 14:37:38;;;;;;;17.23;9.05;;;;;;;;;;4932891;28;20499;-85
2024/01/10 14:43:14;;;;;;;16.98;9.50;;;;;;;;;;4952083;28;20422;-85
2024/01/10 14:45:54;;;;;;;;;;;;;;;;;;;;;
2024/01/10 14:48:23;;;;;;;15.70;8.63;;;;;;;;;;4954060;28;20430;-84
2024/01/10 14:50:52;;;;;;;17.08;9.25;;;;;;;;;;4967354;28;20439;-84
2024/01/10 14:56:20;;;;;;;15.75;8.50;;;;;;;;;;4938924;28;20501;-85
2024/01/10 14:58:55;;;;;;;16.37;9.17;;;;;;;;;;4975111;28;20509;-84
2024/01/10 15:05:10;;;;;;;16.35;9.38;;;;;;;;;;4896866;29;20417;-85
2024/01/10 15:08:00;;;;;;;16.90;9.43;;;;;;;;;;4974012;28;20449;-86
2024/01/10 15:11:04;;;;;;;18.97;9.93;;;;;;;;;;4970685;28;20947;-87
2024/01/10 15:13:51;;;;;;;17.27;9.95;;;;;;;;;;4959792;28;20422;-86
2024/01/10 15:16:36;;;;;;;;;;;;;;;;;;;;;
2024/01/10 15:19:54;;;;;;;;;;;;;;;;;;;;;
2024/01/10 15:22:23;;;;;;;17.33;9.52;;;;;;;;;;4964641;28;20411;-85
2024/01/10 15:24:52;;;;;;;17.20;9.68;;;;;;;;;;4972506;28;20474;-85
2024/01/10 15:28:02;;;;;;;;;;;;;;;;;;;;;
2024/01/10 15:30:55;;;;;;;16.52;9.48;;;;;;;;;;5002775;28;20414;-85
2024/01/10 15:33:33;;;;;;;17.27;9.65;;;;;;;;;;4973415;28;20490;-87
2024/01/10 15:36:09;;;;;;;16.73;9.57;;;;;;;;;;5000733;28;20454;-84
2024/01/10 15:38:42;;;;;;;17.42;9.68;;;;;;;;;;4982801;28;20813;-84
2024/01/10 15:44:19;;;;;;;17.67;9.52;;;;;;;;;;4959857;28;20419;-84
2024/01/10 15:47:08;;;;;;;18.27;9.95;;;;;;;;;;4962890;28;20553;-83
2024/01/10 15:50:01;;;;;;;16.40;9.38;;;;;;;;;;4959104;28;20440;-83
2024/01/10 15:52:34;;;;;;;18.35;10.02;;;;;;;;;;4955269;28;20418;-83
2024/01/10 15:55:16;;;;;;;18.95;11.00;;;;;;;;;;4957738;28;20422;-83
2024/01/10 15:57:53;;;;;;;20.75;10.45;;;;;;;;;;4973331;28;20489;-84
2024/01/10 16:00:32;;;;;;;19.67;10.45;;;;;;;;;;4961464;28;20469;-83
2024/01/10 16:03:26;;;;;;;22.15;11.30;;;;;;;;;;4950439;28;20471;-83
2024/01/10 16:06:09;;;;;;;19.92;10.90;;;;;;;;;;4937106;28;20521;-83
2024/01/10 16:08:36;;;;;;;20.63;11.13;;;;;;;;;;4938610;28;20422;-81
2024/01/10 16:11:14;;;;;;;21.67;11.10;;;;;;;;;;4916082;29;20465;-80
2024/01/10 16:13:51;;;;;;;20.02;11.63;;;;;;;;;;4897908;29;20955;-80
2024/01/10 16:16:35;;;;;;;23.08;12.10;;;;;;;;;;4927595;29;21014;-81
2024/01/10 16:22:22;;;;;;;28.83;16.30;;;;;;;;;;4891744;29;21014;-81
2024/01/10 16:24:52;;;;;;;26.67;15.18;;;;;;;;;;4891611;29;20932;-82
2024/01/10 16:28:00;;;;;;;26.13;14.50;;;;;;;;;;4899525;29;20504;-82
2024/01/10 16:30:47;;;;;;;24.13;11.82;;;;;;;;;;4914659;28;20405;-83
2024/01/10 16:33:23;;;;;;;23.42;12.57;;;;;;;;;;4953577;28;20415;-82
2024/01/10 16:36:10;;;;;;;23.15;12.75;;;;;;;;;;4953769;28;20972;-83
2024/01/10 16:38:49;;;;;;;36.40;19.42;;;;;;;;;;4937444;29;20451;-82
2024/01/10 16:41:46;;;;;;;24.58;13.90;;;;;;;;;;4914399;29;20533;-82
2024/01/10 16:44:39;;;;;;;20.70;12.05;;;;;;;;;;4906059;29;20900;-82
2024/01/10 16:50:36;;;;;;;21.35;11.75;;;;;;;;;;4875522;29;20434;-84
2024/01/10 16:53:11;;;;;;;21.38;12.40;;;;;;;;;;4931008;29;20543;-83
2024/01/10 16:55:38;;;;;;;25.58;14.68;;;;;;;;;;4875428;29;20586;-83
2024/01/10 16:58:13;;;;;;;25.40;13.95;;;;;;;;;;4893656;29;20426;-83
2024/01/10 17:00:51;;;;;;;26.90;14.85;;;;;;;;;;4893263;29;20437;-84
2024/01/10 17:03:17;;;;;;;31.10;16.98;;;;;;;;;;4876913;29;20914;-83
2024/01/10 17:05:44;;;;;;;26.33;14.07;;;;;;;;;;4892383;29;20412;-83
2024/01/10 17:08:10;;;;;;;23.05;12.95;;;;;;;;;;4916948;29;20455;-82
2024/01/10 17:10:39;;;;;;;22.45;13.10;;;;;;;;;;4949521;28;20789;-81
2024/01/10 17:13:05;;;;;;;21.83;12.30;;;;;;;;;;4956180;28;20442;-83
2024/01/10 17:15:32;;;;;;;22.63;12.63;;;;;;;;;;4955381;28;20451;-83
2024/01/10 17:18:10;;;;;;;21.70;12.15;;;;;;;;;;4955441;28;20832;-82
2024/01/10 17:20:36;;;;;;;22.92;12.63;;;;;;;;;;4976692;28;20475;-82
2024/01/10 17:23:02;;;;;;;25.23;12.65;;;;;;;;;;4993331;28;20495;-82
2024/01/10 17:25:28;;;;;;;22.40;12.82;;;;;;;;;;5007387;28;20428;-81
2024/01/10 17:27:56;;;;;;;23.58;13.73;;;;;;;;;;4983738;28;20971;-81
2024/01/10 17:30:22;;;;;;;22.08;11.90;;;;;;;;;;5024318;28;20828;-82
2024/01/10 17:32:49;;;;;;;22.15;11.48;;;;;;;;;;5020867;28;20502;-83
2024/01/10 17:35:15;;;;;;;21.07;11.77;;;;;;;;;;5013539;28;20423;-82
2024/01/10 17:37:41;;;;;;;21.35;11.25;;;;;;;;;;5032990;28;20461;-82
2024/01/10 17:40:09;;;;;;;22.97;12.03;;;;;;;;;;5027737;28;20482;-82
2024/01/10 17:42:35;;;;;;;20.15;11.48;;;;;;;;;;4993799;28;20404;-82
2024/01/10 17:45:01;;;;;;;19.98;11.85;;;;;;;;;;5015896;28;20434;-82
2024/01/10 17:47:29;;;;;;;21.67;12.20;;;;;;;;;;5023061;28;20430;-82
2024/01/10 17:49:55;;;;;;;21.67;12.27;;;;;;;;;;5028424;28;20430;-82
2024/01/10 17:52:22;;;;;;;22.08;11.85;;;;;;;;;;5015825;28;20411;-80
2024/01/10 17:54:48;;;;;;;20.80;12.05;;;;;;;;;;5016049;28;20767;-82
2024/01/10 17:57:19;;;;;;;19.52;11.32;;;;;;;;;;5028359;28;20917;-81
2024/01/10 17:59:47;;;;;;;20.67;11.55;;;;;;;;;;5013231;28;20422;-81
2024/01/10 18:02:13;;;;;;;22.23;12.65;;;;;;;;;;5033051;28;20452;-81
2024/01/10 18:04:41;;;;;;;22.55;12.75;;;;;;;;;;5016238;28;20430;-81
2024/01/10 18:07:07;;;;;;;21.77;12.48;;;;;;;;;;5017418;28;20409;-82
2024/01/10 18:09:33;;;;;;;22.60;12.43;;;;;;;;;;5013671;28;20409;-82
2024/01/10 18:12:00;;;;;;;22.05;12.45;;;;;;;;;;5001328;28;20419;-82